createdAt,value
2023-05-20T00:06:11.245Z,8.30
2023-05-20T00:18:16.994Z,7.78
2023-05-20T00:24:19.596Z,7.95
2023-05-20T00:36:24.802Z,7.85
2023-05-20T00:54:35.950Z,7.65
2023-05-20T01:06:41.049Z,8.75
2023-05-20T01:12:46.778Z,8.52
2023-05-20T01:18:50.132Z,8.43
2023-05-20T01:24:55.953Z,9.15
2023-05-20T01:31:01.060Z,8.45
2023-05-20T01:37:06.236Z,8.52
2023-05-20T01:43:09.748Z,8.88
2023-05-20T01:49:12.086Z,8.23
2023-05-20T01:55:14.960Z,9.25
2023-05-20T02:01:18.091Z,8.30
2023-05-20T02:07:20.628Z,8.90
2023-05-20T02:13:23.155Z,8.57
2023-05-20T02:19:25.679Z,8.57
2023-05-20T02:25:28.059Z,9.20
2023-05-20T02:31:30.666Z,9.55
2023-05-20T02:43:37.084Z,9.32
2023-05-20T02:49:39.612Z,9.05
2023-05-20T02:55:42.243Z,9.55
2023-05-20T03:01:45.736Z,9.33
2023-05-20T03:07:49.191Z,9.25
2023-05-20T03:13:51.798Z,9.30
2023-05-20T03:19:54.512Z,9.65
2023-05-20T03:25:58.180Z,9.77
2023-05-20T03:38:03.178Z,9.65
2023-05-20T03:44:06.681Z,10.20
2023-05-20T03:56:12.079Z,10.63
2023-05-20T04:02:16.794Z,10.80
2023-05-20T04:08:20.474Z,10.73
2023-05-20T04:14:23.415Z,10.45
2023-05-20T04:20:26.504Z,10.57
2023-05-20T04:26:31.890Z,12.35
2023-05-20T04:38:40.539Z,10.85
2023-05-20T04:44:42.998Z,11.98
2023-05-20T04:56:48.346Z,10.77
2023-05-20T05:02:50.953Z,11.02
2023-05-20T05:08:54.703Z,9.95
2023-05-20T05:14:59.082Z,11.38
2023-05-20T05:21:04.133Z,10.18
2023-05-20T05:27:07.510Z,9.48
2023-05-20T05:33:10.127Z,9.95
2023-05-20T05:39:12.968Z,9.18
2023-05-20T05:45:16.288Z,8.55
2023-05-20T05:51:19.383Z,8.55
2023-05-20T05:57:23.883Z,9.75
2023-05-20T06:03:26.585Z,9.35
2023-05-20T06:09:29.467Z,9.20
2023-05-20T06:15:32.555Z,8.05
2023-05-20T06:21:35.617Z,8.60
2023-05-20T06:27:38.387Z,8.57
2023-05-20T06:33:44.673Z,8.23
2023-05-20T06:39:54.166Z,8.88
2023-05-20T06:45:57.252Z,9.18
2023-05-20T06:52:06.030Z,8.75
2023-05-20T06:58:08.996Z,9.45
2023-05-20T07:04:13.552Z,9.25
2023-05-20T07:10:16.197Z,9.07
2023-05-20T07:16:18.722Z,9.38
2023-05-20T07:22:31.745Z,9.02
2023-05-20T07:28:57.653Z,7.22
2023-05-20T07:35:00.391Z,8.07
2023-05-20T07:41:02.996Z,8.60
2023-05-20T07:47:06.167Z,8.73
2023-05-20T07:53:09.950Z,8.45
2023-05-20T07:59:12.449Z,7.82
2023-05-20T08:05:20.867Z,7.53
2023-05-20T08:11:23.647Z,7.25
2023-05-20T08:17:26.565Z,6.97
2023-05-20T08:23:29.858Z,7.85
2023-05-20T08:29:32.622Z,7.45
2023-05-20T08:35:36.501Z,7.75
2023-05-20T08:41:39.938Z,7.20
2023-05-20T08:47:46.748Z,6.95
2023-05-20T08:53:49.458Z,6.90
2023-05-20T08:59:52.138Z,7.20
2023-05-20T09:05:54.804Z,7.45
2023-05-20T09:11:57.371Z,7.22
2023-05-20T09:18:04.237Z,6.70
2023-05-20T09:24:07.100Z,6.97
2023-05-20T09:30:09.829Z,7.07
2023-05-20T09:36:14.503Z,6.18
2023-05-20T09:42:24.606Z,6.72
2023-05-20T09:48:28.240Z,6.70
2023-05-20T09:54:31.795Z,7.00
2023-05-20T10:00:35.036Z,6.20
2023-05-20T10:06:56.693Z,5.93
2023-05-20T10:13:25.146Z,7.07
2023-05-20T10:19:33.397Z,6.18
2023-05-20T10:25:36.197Z,6.53
2023-05-20T10:31:46.378Z,7.75
2023-05-20T10:37:49.130Z,6.25
2023-05-20T10:44:05.398Z,6.50
2023-05-20T10:50:08.392Z,6.40
2023-05-20T10:56:25.482Z,6.95
2023-05-20T11:02:29.221Z,7.35
2023-05-20T11:08:34.283Z,5.90
2023-05-20T11:14:36.628Z,6.10
2023-05-20T11:20:38.970Z,6.45
2023-05-20T11:26:41.750Z,6.78
2023-05-20T11:32:45.120Z,6.30
2023-05-20T11:38:47.988Z,6.75
2023-05-20T11:44:50.218Z,6.90
2023-05-20T11:50:54.921Z,5.93
2023-05-20T11:56:57.472Z,6.47
2023-05-20T12:02:59.901Z,5.90
2023-05-20T12:09:07.476Z,6.13
2023-05-20T12:15:10.498Z,6.00
2023-05-20T12:21:12.988Z,6.10
2023-05-20T12:27:15.539Z,5.95
2023-05-20T12:33:18.067Z,7.07
2023-05-20T12:39:20.290Z,5.88
2023-05-20T12:45:22.670Z,6.22
2023-05-20T12:51:25.232Z,6.88
2023-05-20T12:57:27.708Z,13.48
2023-05-20T13:03:30.279Z,6.70
2023-05-20T13:09:33.671Z,7.38
2023-05-20T13:15:36.534Z,6.45
2023-05-20T13:21:38.954Z,7.47
2023-05-20T13:27:41.057Z,4.60
2023-05-20T13:33:43.596Z,5.63
2023-05-20T13:39:45.956Z,5.53
2023-05-20T13:45:48.370Z,6.85
2023-05-20T13:51:51.318Z,7.40
2023-05-20T13:57:54.619Z,4.80
2023-05-20T14:03:57.703Z,4.38
2023-05-20T14:10:00.309Z,4.55
2023-05-20T14:16:02.808Z,4.30
2023-05-20T14:22:05.179Z,4.65
2023-05-20T14:28:07.877Z,5.65
2023-05-20T14:34:10.408Z,5.43
2023-05-20T14:40:13.509Z,5.65
2023-05-20T14:46:15.899Z,5.40
2023-05-20T14:52:18.781Z,6.75
2023-05-20T14:58:21.468Z,5.93
2023-05-20T15:04:23.968Z,6.38
2023-05-20T15:10:26.592Z,6.88
2023-05-20T15:16:29.172Z,6.43
2023-05-20T15:22:31.663Z,5.55
2023-05-20T15:28:34.135Z,6.22
2023-05-20T15:34:37.019Z,6.40
2023-05-20T15:40:39.993Z,5.80
2023-05-20T15:46:42.657Z,6.20
2023-05-20T15:52:45.056Z,5.95
2023-05-20T15:58:47.535Z,5.32
2023-05-20T16:04:50.161Z,6.63
2023-05-20T16:10:53.204Z,5.72
2023-05-20T16:16:55.753Z,6.05
2023-05-20T16:22:57.961Z,5.40
2023-05-20T16:35:03.138Z,5.15
2023-05-20T16:41:05.550Z,4.93
2023-05-20T16:47:09.610Z,5.22
2023-05-20T16:53:12.286Z,5.90
2023-05-20T16:59:15.604Z,4.72
2023-05-20T17:05:17.976Z,5.40
2023-05-20T17:11:20.693Z,4.75
2023-05-20T17:17:23.130Z,5.70
2023-05-20T17:23:25.522Z,5.93
2023-05-20T17:35:32.197Z,6.28
2023-05-20T17:41:34.541Z,5.85
2023-05-20T17:47:36.960Z,7.03
2023-05-20T17:59:42.225Z,5.70
2023-05-20T18:05:44.821Z,6.63
2023-05-20T18:11:47.333Z,6.90
2023-05-20T18:17:50.601Z,5.18
2023-05-20T18:23:53.064Z,6.38
2023-05-20T18:35:58.121Z,6.13
2023-05-20T18:42:00.243Z,5.35
2023-05-20T18:48:02.696Z,5.68
2023-05-20T19:00:12.615Z,6.35
2023-05-20T19:06:17.122Z,6.20
2023-05-20T19:12:19.855Z,6.93
2023-05-20T19:18:22.464Z,6.50
2023-05-20T19:30:26.973Z,7.13
2023-05-20T19:36:29.202Z,6.30
2023-05-20T19:42:31.612Z,6.88
2023-05-20T19:48:34.494Z,6.60
2023-05-20T19:54:36.800Z,6.03
2023-05-20T20:00:39.216Z,5.93
2023-05-20T20:06:41.754Z,6.53
2023-05-20T20:18:46.040Z,5.82
2023-05-20T20:24:50.096Z,6.55
2023-05-20T20:30:52.587Z,6.53
2023-05-20T20:42:58.899Z,6.65
2023-05-20T20:49:01.644Z,7.63
2023-05-20T20:55:04.839Z,6.60
2023-05-20T21:01:07.525Z,6.85
2023-05-20T21:07:09.834Z,6.30
2023-05-20T21:19:14.857Z,7.13
2023-05-20T21:25:17.266Z,7.40
2023-05-20T21:31:19.969Z,7.75
2023-05-20T21:37:22.672Z,7.07
2023-05-20T21:49:27.646Z,7.55
2023-05-20T21:55:30.057Z,7.43
2023-05-20T22:01:32.417Z,7.82
2023-05-20T22:07:34.899Z,6.57
2023-05-20T22:19:44.520Z,7.43
2023-05-20T22:25:47.078Z,7.20
2023-05-20T22:31:49.219Z,6.82
2023-05-20T22:37:51.552Z,6.15
2023-05-20T22:43:54.118Z,6.63
2023-05-20T22:56:01.084Z,7.38
2023-05-20T23:02:04.284Z,7.13
2023-05-20T23:08:07.103Z,5.80
2023-05-20T23:14:09.427Z,6.78
2023-05-20T23:20:12.036Z,8.43
2023-05-20T23:32:16.813Z,7.03
2023-05-20T23:38:19.495Z,7.03
2023-05-20T23:44:21.897Z,6.13
2023-05-20T23:50:24.269Z,6.18
2023-05-20T23:56:26.720Z,6.22
